createdAt,value
2022-09-26T00:02:17.505Z,100072.94
2022-09-26T00:04:43.921Z,100068.16
2022-09-26T00:07:10.234Z,100067.13
2022-09-26T00:09:36.399Z,100075.16
2022-09-26T00:12:03.589Z,100069.97
2022-09-26T00:14:30.083Z,100067.41
2022-09-26T00:16:56.956Z,100058.50
2022-09-26T00:19:23.795Z,100069.72
2022-09-26T00:21:50.438Z,100058.38
2022-09-26T00:24:16.834Z,100050.59
2022-09-26T00:26:43.071Z,100047.00
2022-09-26T00:29:12.092Z,100053.88
2022-09-26T00:31:43.471Z,100052.72
2022-09-26T00:34:12.160Z,100039.47
2022-09-26T00:36:39.032Z,100050.53
2022-09-26T00:39:07.934Z,100050.41
2022-09-26T00:41:35.264Z,100045.50
2022-09-26T00:44:02.487Z,100044.50
2022-09-26T00:46:41.939Z,100035.53
2022-09-26T00:49:22.151Z,100033.34
2022-09-26T00:51:55.779Z,100039.94
2022-09-26T00:54:23.155Z,100034.00
2022-09-26T00:56:55.030Z,100037.06
2022-09-26T00:59:43.729Z,100039.09
2022-09-26T01:02:11.003Z,100038.59
2022-09-26T01:04:39.928Z,100031.69
2022-09-26T01:07:09.951Z,100036.09
2022-09-26T01:09:38.653Z,100028.13
2022-09-26T01:12:08.012Z,100035.44
2022-09-26T01:14:36.369Z,100031.91
2022-09-26T01:17:03.440Z,100029.88
2022-09-26T01:19:51.473Z,100025.09
2022-09-26T01:22:42.548Z,100023.41
2022-09-26T01:25:34.255Z,100021.53
2022-09-26T01:28:22.388Z,100013.06
2022-09-26T01:30:55.612Z,100016.16
2022-09-26T01:34:02.640Z,100018.69
2022-09-26T01:36:48.774Z,100009.38
2022-09-26T01:40:06.568Z,100011.59
2022-09-26T01:42:54.677Z,100014.16
2022-09-26T01:45:25.350Z,100013.47
2022-09-26T01:48:05.463Z,100008.41
2022-09-26T01:50:45.338Z,100006.88
2022-09-26T01:53:17.162Z,100004.69
2022-09-26T01:55:58.692Z,99991.13
2022-09-26T01:58:32.982Z,99994.19
2022-09-26T02:01:06.496Z,99983.34
2022-09-26T02:03:37.438Z,99984.03
2022-09-26T02:06:11.925Z,99981.50
2022-09-26T02:08:46.146Z,99980.47
2022-09-26T02:11:17.830Z,99983.34
2022-09-26T02:13:56.058Z,99983.53
2022-09-26T02:16:31.492Z,99983.19
2022-09-26T02:19:28.534Z,99980.66
2022-09-26T02:21:58.018Z,99979.28
2022-09-26T02:24:24.581Z,99999.09
2022-09-26T02:26:51.924Z,99993.84
2022-09-26T02:29:20.281Z,99989.97
2022-09-26T02:32:00.186Z,99984.03
2022-09-26T02:34:26.933Z,99972.19
2022-09-26T02:36:55.106Z,99981.50
2022-09-26T02:39:24.126Z,99986.91
2022-09-26T02:42:12.731Z,99989.44
2022-09-26T02:44:42.770Z,99968.28
2022-09-26T02:47:46.569Z,99964.38
2022-09-26T02:50:44.287Z,99970.16
2022-09-26T02:53:32.103Z,99961.00
2022-09-26T02:56:26.011Z,99963.72
2022-09-26T02:59:06.779Z,99957.28
2022-09-26T03:01:47.402Z,99958.13
2022-09-26T03:04:39.867Z,99954.56
2022-09-26T03:07:11.731Z,99962.19
2022-09-26T03:09:40.910Z,99946.09
2022-09-26T03:12:09.241Z,99942.53
2022-09-26T03:14:39.136Z,99932.88
2022-09-26T03:17:07.154Z,99939.00
2022-09-26T03:19:45.946Z,99939.50
2022-09-26T03:22:14.828Z,99937.97
2022-09-26T03:24:42.543Z,99940.50
2022-09-26T03:27:12.091Z,99936.09
2022-09-26T03:29:38.867Z,99932.56
2022-09-26T03:32:07.681Z,99931.38
2022-09-26T03:34:33.891Z,99929.50
2022-09-26T03:37:00.341Z,99918.16
2022-09-26T03:39:26.675Z,99922.03
2022-09-26T03:42:02.801Z,99918.31
2022-09-26T03:44:30.636Z,99915.09
2022-09-26T03:47:03.797Z,99906.47
2022-09-26T03:49:30.875Z,99918.66
2022-09-26T03:51:57.265Z,99921.06
2022-09-26T03:54:24.174Z,99923.09
2022-09-26T03:56:50.391Z,99933.94
2022-09-26T03:59:16.589Z,99930.72
2022-09-26T04:01:44.282Z,99927.16
2022-09-26T04:04:14.513Z,99925.13
2022-09-26T04:06:44.084Z,99917.03
2022-09-26T04:09:16.467Z,99913.97
2022-09-26T04:11:46.239Z,99916.16
2022-09-26T04:14:12.672Z,99903.81
2022-09-26T04:16:39.274Z,99899.06
2022-09-26T04:19:14.427Z,99901.63
2022-09-26T04:21:41.531Z,99916.19
2022-09-26T04:24:13.656Z,99919.91
2022-09-26T04:26:41.281Z,99927.53
2022-09-26T04:29:08.282Z,99932.44
2022-09-26T04:32:03.697Z,99932.75
2022-09-26T04:34:39.525Z,99933.41
2022-09-26T04:37:07.535Z,99923.75
2022-09-26T04:39:35.231Z,99931.53
2022-09-26T04:42:01.405Z,99919.69
2022-09-26T04:44:29.640Z,99914.75
2022-09-26T04:46:57.849Z,99914.25
2022-09-26T04:49:34.171Z,99909.19
2022-09-26T04:52:00.502Z,99912.75
2022-09-26T04:54:26.748Z,99909.41
2022-09-26T04:56:53.868Z,99902.84
2022-09-26T04:59:20.136Z,99898.59
2022-09-26T05:01:58.740Z,99898.94
2022-09-26T05:04:32.684Z,99901.13
2022-09-26T05:06:59.363Z,99894.84
2022-09-26T05:09:32.848Z,99892.66
2022-09-26T05:12:05.251Z,99897.56
2022-09-26T05:14:34.672Z,99901.44
2022-09-26T05:17:02.302Z,99909.22
2022-09-26T05:19:29.543Z,99915.31
2022-09-26T05:22:20.407Z,99926.31
2022-09-26T05:25:06.177Z,99910.91
2022-09-26T05:27:33.661Z,99916.84
2022-09-26T05:30:00.230Z,99910.25
2022-09-26T05:32:28.427Z,99898.72
2022-09-26T05:34:55.412Z,99902.09
2022-09-26T05:37:23.591Z,99907.66
2022-09-26T05:40:08.774Z,99915.94
2022-09-26T05:42:39.864Z,99915.38
2022-09-26T05:45:07.365Z,99921.84
2022-09-26T05:47:35.503Z,99925.16
2022-09-26T05:50:09.087Z,99924.63
2022-09-26T05:52:37.264Z,99926.22
2022-09-26T05:55:05.057Z,99931.78
2022-09-26T05:57:52.721Z,99940.56
2022-09-26T06:00:21.079Z,99931.72
2022-09-26T06:02:55.016Z,99923.28
2022-09-26T06:05:35.507Z,99915.56
2022-09-26T06:08:14.320Z,99911.34
2022-09-26T06:10:47.993Z,99913.84
2022-09-26T06:13:14.551Z,99905.66
2022-09-26T06:15:51.886Z,99911.28
2022-09-26T06:18:18.400Z,99912.59
2022-09-26T06:20:44.852Z,99911.38
2022-09-26T06:23:12.103Z,99917.00
2022-09-26T06:25:39.431Z,99922.25
2022-09-26T06:28:06.343Z,99924.25
2022-09-26T06:30:33.374Z,99918.84
2022-09-26T06:33:10.620Z,99917.44
2022-09-26T06:35:41.259Z,99927.75
2022-09-26T06:38:19.582Z,99928.22
2022-09-26T06:40:46.551Z,99933.75
2022-09-26T06:43:12.842Z,99922.81
2022-09-26T06:45:57.925Z,99916.53
2022-09-26T06:48:47.593Z,99910.94
2022-09-26T06:51:27.181Z,99914.22
2022-09-26T06:53:53.803Z,99909.06
2022-09-26T06:56:24.819Z,99919.03
2022-09-26T06:58:51.295Z,99919.06
2022-09-26T07:01:21.841Z,99915.09
2022-09-26T07:04:21.019Z,99908.50
2022-09-26T07:07:00.901Z,99913.72
2022-09-26T07:09:27.765Z,99909.50
2022-09-26T07:12:20.496Z,99918.06
2022-09-26T07:14:51.425Z,99912.84
2022-09-26T07:17:25.597Z,99915.38
2022-09-26T07:20:12.942Z,99912.91
2022-09-26T07:23:01.850Z,99919.38
2022-09-26T07:25:30.962Z,99923.19
2022-09-26T07:27:58.601Z,99914.25
2022-09-26T07:30:34.734Z,99921.00
2022-09-26T07:33:11.977Z,99921.63
2022-09-26T07:36:05.066Z,99918.16
2022-09-26T07:38:32.177Z,99922.44
2022-09-26T07:40:59.971Z,99917.34
2022-09-26T07:43:42.796Z,99921.59
2022-09-26T07:46:32.008Z,99913.91
2022-09-26T07:49:17.545Z,99910.53
2022-09-26T07:52:14.235Z,99919.75
2022-09-26T07:54:54.956Z,99912.69
2022-09-26T07:57:44.070Z,99918.84
2022-09-26T08:00:30.680Z,99916.69
2022-09-26T08:03:06.463Z,99916.16
2022-09-26T08:05:36.491Z,99908.44
2022-09-26T08:08:04.131Z,99910.59
2022-09-26T08:10:48.996Z,99917.81
2022-09-26T08:13:33.530Z,99914.47
2022-09-26T08:16:22.295Z,99914.44
2022-09-26T08:18:52.629Z,99917.19
2022-09-26T08:21:20.451Z,99914.66
2022-09-26T08:23:47.501Z,99916.09
2022-09-26T08:26:43.247Z,99921.78
2022-09-26T08:29:18.330Z,99918.88
2022-09-26T08:31:47.829Z,99925.81
2022-09-26T08:34:14.534Z,99927.50
2022-09-26T08:36:43.418Z,99930.81
2022-09-26T08:39:15.055Z,99930.53
2022-09-26T08:42:08.822Z,99925.34
2022-09-26T08:45:47.293Z,99934.84
2022-09-26T08:48:49.983Z,99931.63
2022-09-26T08:51:39.651Z,99924.03
2022-09-26T08:54:19.630Z,99926.13
2022-09-26T08:56:51.793Z,99914.41
2022-09-26T08:59:30.786Z,99923.72
2022-09-26T09:02:01.807Z,99914.25
2022-09-26T09:04:48.105Z,99911.91
2022-09-26T09:07:23.855Z,99919.31
2022-09-26T09:09:55.820Z,99919.09
2022-09-26T09:12:39.191Z,99919.91
2022-09-26T09:16:13.719Z,99913.41
2022-09-26T09:19:30.638Z,99919.28
2022-09-26T09:22:13.227Z,99916.94
2022-09-26T09:25:02.891Z,99918.38
2022-09-26T09:27:53.616Z,99910.59
2022-09-26T09:30:40.877Z,99911.47
2022-09-26T09:33:51.502Z,99915.03
2022-09-26T09:36:31.465Z,99914.63
2022-09-26T09:39:30.523Z,99916.53
2022-09-26T09:42:37.961Z,99922.84
2022-09-26T09:45:24.757Z,99922.00
2022-09-26T09:47:51.309Z,99920.13
2022-09-26T09:50:39.087Z,99924.94
2022-09-26T09:53:30.112Z,99922.84
2022-09-26T09:56:15.336Z,99932.97
2022-09-26T09:58:58.455Z,99923.72
2022-09-26T10:01:30.013Z,99924.13
2022-09-26T10:04:06.288Z,99923.69
2022-09-26T10:06:45.364Z,99935.03
2022-09-26T10:09:35.460Z,99923.44
2022-09-26T10:12:42.820Z,99923.53
2022-09-26T10:15:27.461Z,99923.91
2022-09-26T10:18:24.627Z,99924.72
2022-09-26T10:21:15.492Z,99917.59
2022-09-26T10:23:46.146Z,99916.44
2022-09-26T10:26:30.450Z,99914.63
2022-09-26T10:29:07.402Z,99906.50
2022-09-26T10:31:42.387Z,99912.97
2022-09-26T10:34:28.038Z,99910.28
2022-09-26T10:36:55.292Z,99915.09
2022-09-26T10:39:43.066Z,99910.06
2022-09-26T10:42:38.223Z,99909.19
2022-09-26T10:45:28.558Z,99914.00
2022-09-26T10:48:21.274Z,99909.53
2022-09-26T10:51:07.876Z,99917.56
2022-09-26T10:53:44.749Z,99907.59
2022-09-26T10:56:19.923Z,99900.50
2022-09-26T10:58:46.527Z,99903.25
2022-09-26T11:01:21.181Z,99906.84
2022-09-26T11:03:49.452Z,99904.50
2022-09-26T11:06:33.282Z,99898.78
2022-09-26T11:09:22.106Z,99901.69
2022-09-26T11:12:28.995Z,99897.63
2022-09-26T11:15:08.680Z,99898.56
2022-09-26T11:17:47.299Z,99899.78
2022-09-26T11:20:52.718Z,99891.69
2022-09-26T11:23:35.106Z,99884.97
2022-09-26T11:26:14.453Z,99893.78
2022-09-26T11:28:46.395Z,99890.69
2022-09-26T11:31:42.078Z,99891.41
2022-09-26T11:34:33.749Z,99886.22
2022-09-26T11:37:30.340Z,99899.28
2022-09-26T11:40:21.242Z,99893.41
2022-09-26T11:43:07.927Z,99890.91
2022-09-26T11:46:30.614Z,99891.50
2022-09-26T11:49:28.577Z,99898.22
2022-09-26T11:52:18.830Z,99892.97
2022-09-26T11:54:57.733Z,99888.31
2022-09-26T11:57:40.126Z,99879.47
2022-09-26T12:00:25.681Z,99884.47
2022-09-26T12:03:00.244Z,99880.25
2022-09-26T12:05:48.494Z,99882.78
2022-09-26T12:08:23.543Z,99874.78
2022-09-26T12:10:49.881Z,99870.56
2022-09-26T12:13:41.076Z,99865.94
2022-09-26T12:17:00.693Z,99864.91
2022-09-26T12:19:55.005Z,99858.00
2022-09-26T12:22:30.323Z,99861.78
2022-09-26T12:25:10.191Z,99859.47
2022-09-26T12:27:45.009Z,99850.03
2022-09-26T12:30:15.001Z,99862.63
2022-09-26T12:32:57.901Z,99863.25
2022-09-26T12:36:02.031Z,99855.91
2022-09-26T12:38:56.346Z,99857.81
2022-09-26T12:41:51.466Z,99849.19
2022-09-26T12:44:43.684Z,99854.03
2022-09-26T12:47:10.137Z,99849.81
2022-09-26T12:50:02.843Z,99857.78
2022-09-26T12:52:47.961Z,99850.06
2022-09-26T12:55:42.436Z,99841.25
2022-09-26T12:58:28.573Z,99831.16
2022-09-26T13:01:31.891Z,99827.78
2022-09-26T13:04:56.200Z,99825.91
2022-09-26T13:07:33.449Z,99824.41
2022-09-26T13:10:04.151Z,99822.28
2022-09-26T13:12:45.429Z,99818.28
2022-09-26T13:15:34.626Z,99817.84
2022-09-26T13:18:08.123Z,99823.47
2022-09-26T13:20:43.077Z,99826.44
2022-09-26T13:23:29.677Z,99820.97
2022-09-26T13:26:08.269Z,99822.75
2022-09-26T13:29:00.605Z,99811.63
2022-09-26T13:31:39.699Z,99811.63
2022-09-26T13:34:18.446Z,99818.19
2022-09-26T13:36:46.572Z,99810.69
2022-09-26T13:39:41.697Z,99804.31
2022-09-26T13:42:18.152Z,99798.03
2022-09-26T13:45:06.747Z,99797.75
2022-09-26T13:47:55.414Z,99794.41
2022-09-26T13:50:30.409Z,99792.28
2022-09-26T13:53:26.177Z,99792.50
2022-09-26T13:56:30.548Z,99792.47
2022-09-26T13:59:13.683Z,99786.88
2022-09-26T14:02:18.816Z,99782.38
2022-09-26T14:04:51.778Z,99776.50
2022-09-26T14:07:41.190Z,99776.19
2022-09-26T14:10:18.367Z,99776.75
2022-09-26T14:13:10.439Z,99782.06
2022-09-26T14:15:56.376Z,99774.69
2022-09-26T14:18:46.674Z,99776.75
2022-09-26T14:21:37.749Z,99783.97
2022-09-26T14:24:31.310Z,99772.88
2022-09-26T14:27:04.164Z,99774.00
2022-09-26T14:29:53.004Z,99779.75
2022-09-26T14:32:26.562Z,99775.94
2022-09-26T14:34:53.189Z,99772.41
2022-09-26T14:37:23.306Z,99778.00
2022-09-26T14:39:58.863Z,99771.88
2022-09-26T14:42:31.250Z,99775.44
2022-09-26T14:45:01.024Z,99771.69
2022-09-26T14:47:38.548Z,99769.16
2022-09-26T14:50:13.439Z,99772.75
2022-09-26T14:52:39.650Z,99766.88
2022-09-26T14:55:07.226Z,99762.69
2022-09-26T14:57:34.969Z,99758.69
2022-09-26T15:00:01.984Z,99758.28
2022-09-26T15:02:38.395Z,99758.72
2022-09-26T15:05:08.119Z,99756.00
2022-09-26T15:07:46.278Z,99754.31
2022-09-26T15:10:13.400Z,99750.13
2022-09-26T15:12:49.480Z,99748.03
2022-09-26T15:15:37.930Z,99747.84
2022-09-26T15:18:18.793Z,99745.09
2022-09-26T15:20:54.556Z,99751.66
2022-09-26T15:23:29.725Z,99757.34
2022-09-26T15:26:01.945Z,99753.56
2022-09-26T15:28:33.879Z,99754.41
2022-09-26T15:31:21.629Z,99756.09
2022-09-26T15:33:54.131Z,99758.22
2022-09-26T15:36:20.744Z,99760.53
2022-09-26T15:38:48.699Z,99758.41
2022-09-26T15:41:37.737Z,99743.72
2022-09-26T15:44:18.458Z,99746.66
2022-09-26T15:46:48.903Z,99743.28
2022-09-26T15:49:23.870Z,99743.06
2022-09-26T15:51:54.168Z,99740.34
2022-09-26T15:54:32.393Z,99736.13
2022-09-26T15:57:02.034Z,99734.25
2022-09-26T15:59:40.702Z,99740.13
2022-09-26T16:02:30.414Z,99730.25
2022-09-26T16:04:57.801Z,99729.00
2022-09-26T16:07:27.771Z,99724.78
2022-09-26T16:09:55.485Z,99732.56
2022-09-26T16:12:24.068Z,99733.19
2022-09-26T16:15:04.794Z,99724.56
2022-09-26T16:17:39.522Z,99724.97
2022-09-26T16:20:09.314Z,99728.94
2022-09-26T16:22:46.271Z,99723.66
2022-09-26T16:25:29.022Z,99713.34
2022-09-26T16:27:56.592Z,99715.16
2022-09-26T16:30:23.198Z,99719.69
2022-09-26T16:32:52.117Z,99722.34
2022-09-26T16:35:27.301Z,99712.19
2022-09-26T16:38:18.315Z,99712.28
2022-09-26T16:40:57.065Z,99712.31
2022-09-26T16:43:31.672Z,99709.66
2022-09-26T16:46:08.356Z,99707.84
2022-09-26T16:48:38.311Z,99708.19
2022-09-26T16:51:16.988Z,99708.41
2022-09-26T16:53:58.239Z,99701.41
2022-09-26T16:56:25.605Z,99705.75
2022-09-26T16:58:56.247Z,99713.06
2022-09-26T17:01:42.498Z,99710.47
2022-09-26T17:04:17.207Z,99699.31
2022-09-26T17:06:47.013Z,99703.91
2022-09-26T17:09:22.855Z,99705.34
2022-09-26T17:11:52.573Z,99701.97
2022-09-26T17:14:23.153Z,99707.78
2022-09-26T17:16:57.454Z,99706.94
2022-09-26T17:19:27.026Z,99707.63
2022-09-26T17:21:54.329Z,99712.78
2022-09-26T17:24:23.151Z,99714.00
2022-09-26T17:26:57.203Z,99709.50
2022-09-26T17:29:26.569Z,99712.78
2022-09-26T17:31:54.786Z,99718.22
2022-09-26T17:34:22.412Z,99718.78
2022-09-26T17:36:49.210Z,99714.28
2022-09-26T17:39:24.815Z,99713.84
2022-09-26T17:41:58.607Z,99708.13
2022-09-26T17:44:25.320Z,99706.16
2022-09-26T17:46:54.598Z,99708.59
2022-09-26T17:49:32.650Z,99700.53
2022-09-26T17:52:01.641Z,99703.06
2022-09-26T17:54:37.051Z,99703.91
2022-09-26T17:57:07.276Z,99706.91
2022-09-26T17:59:34.509Z,99703.06
2022-09-26T18:02:12.740Z,99702.03
2022-09-26T18:04:40.866Z,99698.47
2022-09-26T18:07:15.592Z,99695.13
2022-09-26T18:09:44.068Z,99697.16
2022-09-26T18:12:17.931Z,99695.13
2022-09-26T18:14:45.708Z,99687.91
2022-09-26T18:17:17.818Z,99687.06
2022-09-26T18:19:44.528Z,99692.84
2022-09-26T18:22:17.656Z,99685.63
2022-09-26T18:24:50.274Z,99684.03
2022-09-26T18:27:20.158Z,99674.09
2022-09-26T18:29:47.310Z,99674.66
2022-09-26T18:32:29.067Z,99673.16
2022-09-26T18:34:55.724Z,99670.25
2022-09-26T18:37:21.853Z,99666.50
2022-09-26T18:39:53.635Z,99666.69
2022-09-26T18:42:23.739Z,99675.13
2022-09-26T18:45:14.615Z,99670.53
2022-09-26T18:47:42.657Z,99673.81
2022-09-26T18:50:22.463Z,99675.91
2022-09-26T18:52:49.953Z,99676.63
2022-09-26T18:55:40.459Z,99671.28
2022-09-26T18:58:23.885Z,99672.84
2022-09-26T19:00:56.201Z,99678.81
2022-09-26T19:03:25.960Z,99678.47
2022-09-26T19:06:01.100Z,99675.19
2022-09-26T19:08:32.943Z,99674.84
2022-09-26T19:11:03.170Z,99679.72
2022-09-26T19:13:31.080Z,99669.53
2022-09-26T19:16:00.489Z,99662.53
2022-09-26T19:18:26.792Z,99669.44
2022-09-26T19:20:53.342Z,99673.84
2022-09-26T19:23:20.439Z,99668.44
2022-09-26T19:25:46.687Z,99666.03
2022-09-26T19:28:20.605Z,99672.31
2022-09-26T19:30:47.345Z,99675.91
2022-09-26T19:33:14.019Z,99666.81
2022-09-26T19:35:40.860Z,99663.25
2022-09-26T19:38:26.168Z,99662.41
2022-09-26T19:40:53.220Z,99661.38
2022-09-26T19:43:23.601Z,99655.13
2022-09-26T19:45:53.088Z,99646.78
2022-09-26T19:48:22.719Z,99651.66
2022-09-26T19:50:51.703Z,99658.97
2022-09-26T19:53:20.636Z,99654.84
2022-09-26T19:55:49.508Z,99662.03
2022-09-26T19:58:25.846Z,99654.56
2022-09-26T20:00:58.444Z,99650.34
2022-09-26T20:03:39.590Z,99641.19
2022-09-26T20:06:24.075Z,99646.91
2022-09-26T20:08:53.758Z,99633.53
2022-09-26T20:11:22.211Z,99632.69
2022-09-26T20:14:07.075Z,99639.13
2022-09-26T20:16:37.865Z,99626.97
2022-09-26T20:19:05.827Z,99634.56
2022-09-26T20:21:33.222Z,99631.19
2022-09-26T20:24:00.021Z,99622.56
2022-09-26T20:26:29.131Z,99623.03
2022-09-26T20:28:56.604Z,99627.63
2022-09-26T20:31:28.105Z,99626.59
2022-09-26T20:33:56.325Z,99616.97
2022-09-26T20:36:31.394Z,99613.88
2022-09-26T20:39:04.519Z,99618.00
2022-09-26T20:41:37.969Z,99615.75
2022-09-26T20:44:08.585Z,99607.78
2022-09-26T20:46:38.362Z,99616.97
2022-09-26T20:49:12.361Z,99611.06
2022-09-26T20:51:39.097Z,99605.16
2022-09-26T20:54:14.148Z,99609.63
2022-09-26T20:56:40.995Z,99609.81
2022-09-26T20:59:07.943Z,99609.81
2022-09-26T21:01:34.214Z,99607.22
2022-09-26T21:04:01.444Z,99603.66
2022-09-26T21:06:32.865Z,99612.63
2022-09-26T21:08:59.915Z,99608.78
2022-09-26T21:11:26.602Z,99613.66
2022-09-26T21:13:52.921Z,99607.22
2022-09-26T21:16:21.065Z,99604.69
2022-09-26T21:18:50.670Z,99604.28
2022-09-26T21:21:26.912Z,99599.91
2022-09-26T21:24:15.795Z,99596.44
2022-09-26T21:26:42.397Z,99599.81
2022-09-26T21:29:15.391Z,99596.06
2022-09-26T21:31:47.695Z,99591.50
2022-09-26T21:34:21.496Z,99593.72
2022-09-26T21:36:50.626Z,99595.22
2022-09-26T21:39:18.411Z,99593.72
2022-09-26T21:41:50.079Z,99588.69
2022-09-26T21:44:24.246Z,99565.78
2022-09-26T21:46:51.267Z,99568.31
2022-09-26T21:49:18.040Z,99559.13
2022-09-26T21:51:49.302Z,99573.63
2022-09-26T21:54:22.576Z,99566.53
2022-09-26T21:56:53.062Z,99562.59
2022-09-26T21:59:21.801Z,99560.38
2022-09-26T22:01:48.299Z,99560.09
2022-09-26T22:04:14.745Z,99550.03
2022-09-26T22:06:41.345Z,99549.19
2022-09-26T22:09:08.556Z,99546.47
2022-09-26T22:11:36.184Z,99540.38
2022-09-26T22:14:03.807Z,99535.81
2022-09-26T22:16:30.164Z,99525.59
2022-09-26T22:18:57.170Z,99527.38
2022-09-26T22:21:23.351Z,99531.78
2022-09-26T22:23:50.847Z,99527.47
2022-09-26T22:26:18.444Z,99522.88
2022-09-26T22:28:44.982Z,99521.56
2022-09-26T22:31:11.676Z,99522.03
2022-09-26T22:33:38.110Z,99516.13
2022-09-26T22:36:06.052Z,99521.56
2022-09-26T22:38:33.549Z,99511.09
2022-09-26T22:41:02.495Z,99504.91
2022-09-26T22:43:28.917Z,99499.09
2022-09-26T22:46:10.343Z,99488.16
2022-09-26T22:48:41.348Z,99492.81
2022-09-26T22:51:09.443Z,99489.91
2022-09-26T22:53:37.844Z,99488.25
2022-09-26T22:56:07.372Z,99480.19
2022-09-26T22:58:36.856Z,99485.31
2022-09-26T23:01:05.294Z,99478.00
2022-09-26T23:03:35.040Z,99473.47
2022-09-26T23:06:02.428Z,99469.34
2022-09-26T23:08:28.582Z,99470.44
2022-09-26T23:10:55.898Z,99457.25
2022-09-26T23:13:25.130Z,99468.56
2022-09-26T23:15:51.633Z,99456.44
2022-09-26T23:18:18.343Z,99453.34
2022-09-26T23:20:44.830Z,99449.34
2022-09-26T23:23:12.894Z,99446.84
2022-09-26T23:25:49.577Z,99451.81
2022-09-26T23:28:16.834Z,99451.81
2022-09-26T23:30:43.533Z,99442.38
2022-09-26T23:33:09.852Z,99446.25
2022-09-26T23:35:36.281Z,99447.56
2022-09-26T23:38:05.174Z,99442.44
2022-09-26T23:40:31.867Z,99441.53
2022-09-26T23:43:00.874Z,99437.31
2022-09-26T23:45:27.596Z,99443.19
2022-09-26T23:47:53.671Z,99428.97
2022-09-26T23:50:20.065Z,99435.44
2022-09-26T23:52:46.383Z,99433.56
2022-09-26T23:55:13.230Z,99429.75
2022-09-26T23:57:39.309Z,99426.56
